Time;durP1;ratioP1;P1;durP2;ratioP2;P2;SDS_P1;SDS_P2;PMS_P1;PMS_P2;Temp;Humidity;BMP_temperature;BMP_pressure;BME280_temperature;BME280_humidity;BME280_pressure;Samples;Min_cycle;Max_cycle;Signal;HPM_P1;HPM_P2
2024/01/28 00:01:39;;;;;;;3.08;1.00;;;;;;;;;;5010036;28;20033;-82
2024/01/28 00:04:05;;;;;;;3.75;1.60;;;;;;;;;;5000811;28;20804;-81
2024/01/28 00:06:31;;;;;;;4.47;1.98;;;;;;;;;;5008975;28;20095;-82
2024/01/28 00:08:57;;;;;;;4.78;1.90;;;;;;;;;;5002037;28;20037;-81
2024/01/28 00:11:23;;;;;;;0.55;0.45;;;;;;;;;;5010658;28;20030;-81
2024/01/28 00:13:49;;;;;;;1.90;0.80;;;;;;;;;;5009900;28;20041;-81
2024/01/28 00:16:18;;;;;;;4.85;1.13;;;;;;;;;;5010850;28;20455;-81
2024/01/28 00:18:44;;;;;;;3.13;1.77;;;;;;;;;;5008804;28;20047;-81
2024/01/28 00:21:11;;;;;;;4.03;2.50;;;;;;;;;;5010057;28;20030;-82
2024/01/28 00:23:37;;;;;;;1.55;0.80;;;;;;;;;;5009707;28;20042;-81
2024/01/28 00:26:03;;;;;;;4.82;1.92;;;;;;;;;;4992578;28;20192;-81
2024/01/28 00:28:29;;;;;;;3.42;2.13;;;;;;;;;;5001627;28;20569;-81
2024/01/28 00:30:55;;;;;;;2.38;1.48;;;;;;;;;;4998046;28;20030;-81
2024/01/28 00:33:21;;;;;;;6.55;1.92;;;;;;;;;;4997387;28;20026;-81
2024/01/28 00:35:47;;;;;;;4.88;1.63;;;;;;;;;;5004819;28;20040;-81
2024/01/28 00:38:13;;;;;;;3.22;2.10;;;;;;;;;;4985551;28;20611;-81
2024/01/28 00:40:39;;;;;;;4.53;1.75;;;;;;;;;;5010183;28;20041;-81
2024/01/28 00:43:05;;;;;;;2.28;1.45;;;;;;;;;;5002098;28;20108;-82
2024/01/28 00:45:32;;;;;;;2.03;1.05;;;;;;;;;;5008570;28;20108;-81
2024/01/28 00:47:58;;;;;;;3.13;0.80;;;;;;;;;;5001336;28;20054;-81
2024/01/28 00:50:24;;;;;;;1.48;0.52;;;;;;;;;;5005041;28;20030;-81
2024/01/28 00:52:50;;;;;;;1.60;1.13;;;;;;;;;;5009106;28;20460;-81
2024/01/28 00:55:16;;;;;;;4.63;1.20;;;;;;;;;;5010537;28;20105;-81
2024/01/28 00:57:43;;;;;;;2.53;1.48;;;;;;;;;;5009554;28;20141;-81
2024/01/28 01:00:10;;;;;;;4.82;1.83;;;;;;;;;;5005454;28;20038;-81
2024/01/28 01:02:36;;;;;;;4.95;2.05;;;;;;;;;;5009559;28;20029;-81
2024/01/28 01:05:02;;;;;;;5.95;1.95;;;;;;;;;;5009320;28;20038;-81
2024/01/28 01:07:29;;;;;;;4.88;1.52;;;;;;;;;;5009748;28;20049;-81
2024/01/28 01:09:55;;;;;;;3.00;1.73;;;;;;;;;;5001702;28;20043;-81
2024/01/28 01:12:21;;;;;;;2.42;1.27;;;;;;;;;;5011058;28;20097;-81
2024/01/28 01:14:47;;;;;;;1.70;1.15;;;;;;;;;;5007063;28;20037;-81
2024/01/28 01:17:13;;;;;;;4.32;2.03;;;;;;;;;;5000583;28;20081;-81
2024/01/28 01:19:39;;;;;;;2.50;1.85;;;;;;;;;;4994731;28;20066;-81
2024/01/28 01:22:05;;;;;;;3.50;1.35;;;;;;;;;;5009870;28;20040;-81
2024/01/28 01:24:31;;;;;;;4.93;1.75;;;;;;;;;;5005555;28;20464;-81
2024/01/28 01:26:57;;;;;;;3.08;1.02;;;;;;;;;;5001871;28;20041;-81
2024/01/28 01:29:24;;;;;;;2.80;1.00;;;;;;;;;;5007182;28;20375;-81
2024/01/28 01:31:50;;;;;;;7.43;1.70;;;;;;;;;;4997905;28;20033;-81
2024/01/28 01:34:17;;;;;;;2.38;1.52;;;;;;;;;;5006723;28;20030;-81
2024/01/28 01:36:43;;;;;;;2.17;1.70;;;;;;;;;;4992945;28;20030;-81
2024/01/28 01:39:09;;;;;;;6.32;1.67;;;;;;;;;;5007533;28;20046;-81
2024/01/28 01:41:35;;;;;;;3.08;1.77;;;;;;;;;;5002992;28;20030;-81
2024/01/28 01:44:01;;;;;;;2.75;1.30;;;;;;;;;;5008710;28;20042;-81
2024/01/28 01:46:28;;;;;;;2.00;0.90;;;;;;;;;;4992247;28;20031;-81
2024/01/28 01:48:54;;;;;;;3.25;1.02;;;;;;;;;;5009273;28;20444;-81
2024/01/28 01:51:23;;;;;;;2.45;1.23;;;;;;;;;;5000202;28;20495;-81
2024/01/28 01:53:49;;;;;;;3.15;1.10;;;;;;;;;;5006742;28;20141;-81
2024/01/28 01:56:15;;;;;;;4.20;1.27;;;;;;;;;;5009429;28;20589;-81
2024/01/28 01:58:42;;;;;;;2.13;1.27;;;;;;;;;;4993593;28;20052;-81
2024/01/28 02:01:08;;;;;;;0.55;0.47;;;;;;;;;;5010581;28;20109;-81
2024/01/28 02:03:34;;;;;;;4.30;1.30;;;;;;;;;;5003738;28;20038;-81
2024/01/28 02:06:00;;;;;;;4.05;1.77;;;;;;;;;;5006950;28;20049;-81
2024/01/28 02:08:26;;;;;;;4.15;1.38;;;;;;;;;;5011737;28;20037;-81
2024/01/28 02:10:52;;;;;;;1.65;0.95;;;;;;;;;;4997881;28;20105;-81
2024/01/28 02:13:18;;;;;;;2.17;1.05;;;;;;;;;;5006676;28;20037;-81
2024/01/28 02:15:45;;;;;;;1.73;1.13;;;;;;;;;;5000310;28;20030;-81
2024/01/28 02:18:11;;;;;;;6.82;1.75;;;;;;;;;;5003295;28;20030;-81
2024/01/28 02:20:37;;;;;;;4.68;1.08;;;;;;;;;;4984899;28;20091;-81
2024/01/28 02:23:07;;;;;;;4.93;1.27;;;;;;;;;;5005308;28;20096;-81
2024/01/28 02:25:33;;;;;;;3.45;1.27;;;;;;;;;;5005173;28;20073;-81
2024/01/28 02:27:59;;;;;;;2.20;0.80;;;;;;;;;;5007856;28;20798;-81
2024/01/28 02:30:25;;;;;;;3.85;1.20;;;;;;;;;;5012237;28;20121;-81
2024/01/28 02:32:52;;;;;;;5.05;1.55;;;;;;;;;;5004686;28;20026;-81
2024/01/28 02:35:18;;;;;;;2.90;1.52;;;;;;;;;;5007279;28;20152;-81
2024/01/28 02:37:45;;;;;;;1.38;0.70;;;;;;;;;;5001524;28;20034;-81
2024/01/28 02:40:12;;;;;;;2.15;0.88;;;;;;;;;;5010045;28;20057;-81
2024/01/28 02:42:38;;;;;;;1.55;0.95;;;;;;;;;;5011709;28;20030;-81
2024/01/28 02:45:05;;;;;;;5.78;2.13;;;;;;;;;;5010228;28;20124;-81
2024/01/28 02:47:31;;;;;;;7.13;0.80;;;;;;;;;;5010831;28;20036;-81
2024/01/28 02:49:57;;;;;;;2.17;1.13;;;;;;;;;;5012195;28;20034;-81
2024/01/28 02:52:23;;;;;;;3.97;1.33;;;;;;;;;;5007635;28;20029;-81
2024/01/28 02:54:49;;;;;;;1.52;1.15;;;;;;;;;;5000512;28;20110;-81
2024/01/28 02:57:15;;;;;;;1.80;0.75;;;;;;;;;;4997580;28;20111;-81
2024/01/28 02:59:41;;;;;;;1.25;1.05;;;;;;;;;;5007896;28;20149;-81
2024/01/28 03:02:07;;;;;;;0.77;0.50;;;;;;;;;;5011004;28;20544;-81
2024/01/28 03:04:37;;;;;;;1.27;0.82;;;;;;;;;;4989202;28;20045;-81
2024/01/28 03:07:03;;;;;;;0.47;0.32;;;;;;;;;;4984815;28;20138;-80
2024/01/28 03:09:29;;;;;;;0.93;0.45;;;;;;;;;;4985156;28;20074;-80
2024/01/28 03:11:55;;;;;;;6.15;1.65;;;;;;;;;;5000084;28;20037;-81
2024/01/28 03:14:21;;;;;;;0.85;0.55;;;;;;;;;;5008909;28;20044;-81
2024/01/28 03:16:48;;;;;;;2.88;0.60;;;;;;;;;;5006088;28;20025;-81
2024/01/28 03:19:15;;;;;;;1.83;1.08;;;;;;;;;;5005467;28;20030;-81
2024/01/28 03:21:41;;;;;;;0.60;0.20;;;;;;;;;;5008605;28;20021;-81
2024/01/28 03:24:07;;;;;;;1.38;0.50;;;;;;;;;;4999893;28;20560;-81
2024/01/28 03:26:34;;;;;;;1.15;0.50;;;;;;;;;;5001626;28;20022;-81
2024/01/28 03:29:00;;;;;;;1.88;1.35;;;;;;;;;;4990640;28;20049;-81
2024/01/28 03:31:26;;;;;;;2.17;0.73;;;;;;;;;;5000455;28;20053;-81
2024/01/28 03:33:52;;;;;;;1.58;0.65;;;;;;;;;;5005435;28;20045;-81
2024/01/28 03:36:18;;;;;;;3.83;1.65;;;;;;;;;;5007260;28;20030;-80
2024/01/28 03:38:44;;;;;;;1.70;0.47;;;;;;;;;;5009046;28;20495;-81
2024/01/28 03:41:10;;;;;;;2.83;1.60;;;;;;;;;;5009949;28;20057;-81
2024/01/28 03:43:36;;;;;;;1.50;1.02;;;;;;;;;;4991958;28;20042;-80
2024/01/28 03:46:02;;;;;;;4.78;1.42;;;;;;;;;;5010674;28;20034;-81
2024/01/28 03:48:28;;;;;;;2.15;1.05;;;;;;;;;;5002195;28;20030;-81
2024/01/28 03:50:54;;;;;;;2.35;1.10;;;;;;;;;;5010736;28;20026;-81
2024/01/28 03:53:20;;;;;;;2.70;1.17;;;;;;;;;;5002745;28;20037;-81
2024/01/28 03:55:46;;;;;;;1.40;0.85;;;;;;;;;;5004055;28;20096;-81
2024/01/28 03:58:13;;;;;;;0.98;0.65;;;;;;;;;;5008920;28;20472;-81
2024/01/28 04:00:39;;;;;;;1.05;0.45;;;;;;;;;;5000949;28;20042;-81
2024/01/28 04:03:05;;;;;;;2.47;1.13;;;;;;;;;;5005137;28;20552;-81
2024/01/28 04:05:32;;;;;;;7.30;1.30;;;;;;;;;;4991924;28;20041;-81
2024/01/28 04:07:58;;;;;;;1.13;0.55;;;;;;;;;;4991736;28;20093;-81
2024/01/28 04:10:25;;;;;;;1.88;0.40;;;;;;;;;;5006056;28;20030;-81
2024/01/28 04:12:51;;;;;;;0.85;0.70;;;;;;;;;;4985115;28;20476;-81
2024/01/28 04:15:17;;;;;;;2.83;1.02;;;;;;;;;;5010628;28;20464;-81
2024/01/28 04:17:43;;;;;;;0.85;0.50;;;;;;;;;;5004967;28;20045;-81
2024/01/28 04:20:09;;;;;;;1.30;0.90;;;;;;;;;;5008940;28;20046;-81
2024/01/28 04:22:35;;;;;;;2.00;0.68;;;;;;;;;;5005549;28;20061;-81
2024/01/28 04:25:01;;;;;;;2.45;1.13;;;;;;;;;;4986533;28;20102;-81
2024/01/28 04:27:27;;;;;;;1.60;0.85;;;;;;;;;;4999004;28;20033;-81
2024/01/28 04:29:53;;;;;;;0.98;0.50;;;;;;;;;;5005739;28;20038;-81
2024/01/28 04:32:20;;;;;;;6.00;1.27;;;;;;;;;;5008716;28;20030;-81
2024/01/28 04:34:46;;;;;;;3.22;1.15;;;;;;;;;;5008763;28;20077;-81
2024/01/28 04:37:12;;;;;;;1.73;0.88;;;;;;;;;;5010663;28;20437;-81
2024/01/28 04:39:38;;;;;;;0.82;0.43;;;;;;;;;;5002806;28;20045;-81
2024/01/28 04:42:04;;;;;;;2.58;0.93;;;;;;;;;;5006177;28;20022;-81
2024/01/28 04:44:30;;;;;;;2.58;1.25;;;;;;;;;;5003807;28;20056;-81
2024/01/28 04:46:57;;;;;;;0.20;0.20;;;;;;;;;;4999235;28;20524;-81
2024/01/28 04:49:23;;;;;;;1.15;0.68;;;;;;;;;;4997973;28;20030;-81
2024/01/28 04:51:50;;;;;;;1.60;1.05;;;;;;;;;;4990019;28;20072;-81
2024/01/28 04:54:16;;;;;;;4.15;1.23;;;;;;;;;;5000886;28;20341;-81
2024/01/28 04:56:42;;;;;;;1.65;1.02;;;;;;;;;;5005782;28;20040;-81
2024/01/28 04:59:09;;;;;;;1.30;0.80;;;;;;;;;;5004666;28;20539;-81
2024/01/28 05:01:35;;;;;;;0.88;0.65;;;;;;;;;;4997077;28;20030;-81
2024/01/28 05:04:01;;;;;;;;;;;;;;;;;;4998009;28;20499;-81
2024/01/28 05:06:34;;;;;;;1.70;1.00;;;;;;;;;;4999632;28;20530;-81
2024/01/28 05:09:02;;;;;;;0.50;0.40;;;;;;;;;;5006193;28;20039;-81
2024/01/28 05:11:28;;;;;;;1.50;0.95;;;;;;;;;;5008109;28;20057;-81
2024/01/28 05:13:54;;;;;;;5.10;1.63;;;;;;;;;;5000622;28;20796;-81
2024/01/28 05:16:20;;;;;;;0.65;0.43;;;;;;;;;;5005561;28;20026;-81
2024/01/28 05:18:46;;;;;;;1.75;0.60;;;;;;;;;;5010189;28;20368;-81
2024/01/28 05:21:12;;;;;;;1.05;0.75;;;;;;;;;;5007265;28;20065;-81
2024/01/28 05:23:38;;;;;;;0.90;0.43;;;;;;;;;;5009796;28;20026;-81
2024/01/28 05:26:04;;;;;;;2.40;0.73;;;;;;;;;;5002675;28;20116;-81
2024/01/28 05:28:30;;;;;;;1.75;0.85;;;;;;;;;;4989886;28;20064;-81
2024/01/28 05:30:56;;;;;;;2.33;1.38;;;;;;;;;;4999926;28;20125;-81
2024/01/28 05:33:22;;;;;;;3.85;1.08;;;;;;;;;;5002556;28;20032;-81
2024/01/28 05:35:48;;;;;;;4.05;0.95;;;;;;;;;;5002000;28;20033;-81
2024/01/28 05:38:14;;;;;;;0.55;0.45;;;;;;;;;;4986806;28;20049;-81
2024/01/28 05:40:41;;;;;;;3.35;1.80;;;;;;;;;;5007558;28;20030;-81
2024/01/28 05:43:07;;;;;;;3.42;1.15;;;;;;;;;;5002508;28;20037;-81
2024/01/28 05:45:33;;;;;;;1.45;0.68;;;;;;;;;;4994805;28;20659;-81
2024/01/28 05:48:01;;;;;;;6.40;1.00;;;;;;;;;;5009036;28;20835;-80
2024/01/28 05:50:29;;;;;;;1.35;0.85;;;;;;;;;;5008736;28;20030;-81
2024/01/28 05:52:55;;;;;;;6.53;0.98;;;;;;;;;;4994792;28;20057;-81
2024/01/28 05:55:21;;;;;;;3.17;1.30;;;;;;;;;;5012821;28;20127;-81
2024/01/28 05:57:47;;;;;;;2.05;1.42;;;;;;;;;;5014330;28;20088;-81
2024/01/28 06:00:14;;;;;;;3.88;1.23;;;;;;;;;;5012956;28;20038;-81
2024/01/28 06:02:40;;;;;;;1.17;0.80;;;;;;;;;;5012779;28;20858;-81
2024/01/28 06:05:07;;;;;;;1.33;0.60;;;;;;;;;;5012833;28;20820;-81
2024/01/28 06:07:33;;;;;;;1.60;0.63;;;;;;;;;;5002258;28;20136;-81
2024/01/28 06:09:59;;;;;;;2.78;0.75;;;;;;;;;;4990249;28;20074;-81
2024/01/28 06:12:25;;;;;;;6.57;0.60;;;;;;;;;;4987471;28;20116;-80
2024/01/28 06:14:51;;;;;;;2.20;0.90;;;;;;;;;;4985938;28;20029;-80
2024/01/28 06:17:17;;;;;;;0.73;0.55;;;;;;;;;;4985288;28;20038;-81
2024/01/28 06:19:44;;;;;;;2.78;1.08;;;;;;;;;;4986645;28;20038;-81
2024/01/28 06:22:10;;;;;;;4.72;1.50;;;;;;;;;;4988635;28;20105;-81
2024/01/28 06:24:36;;;;;;;1.75;1.25;;;;;;;;;;4975491;28;20073;-81
2024/01/28 06:27:02;;;;;;;2.63;0.45;;;;;;;;;;4985957;28;20035;-80
2024/01/28 06:29:28;;;;;;;2.10;1.02;;;;;;;;;;4993883;28;20046;-80
2024/01/28 06:31:54;;;;;;;1.52;1.10;;;;;;;;;;4987279;28;20030;-80
2024/01/28 06:34:20;;;;;;;2.38;1.17;;;;;;;;;;4976220;28;20073;-83
2024/01/28 06:36:46;;;;;;;2.67;0.95;;;;;;;;;;4990446;28;20031;-81
2024/01/28 06:39:12;;;;;;;5.07;1.33;;;;;;;;;;4984880;28;20041;-80
2024/01/28 06:41:41;;;;;;;2.72;0.70;;;;;;;;;;4985293;28;20102;-81
2024/01/28 06:44:07;;;;;;;4.75;1.48;;;;;;;;;;4973328;28;20035;-81
2024/01/28 06:46:33;;;;;;;6.70;0.90;;;;;;;;;;4992447;28;20041;-81
2024/01/28 06:49:01;;;;;;;0.28;0.25;;;;;;;;;;4977062;28;20054;-81
2024/01/28 06:51:28;;;;;;;1.73;0.57;;;;;;;;;;4983868;28;20069;-81
2024/01/28 06:53:54;;;;;;;2.45;0.82;;;;;;;;;;4976135;28;20035;-80
2024/01/28 06:56:20;;;;;;;2.75;0.82;;;;;;;;;;4978930;28;20031;-80
2024/01/28 06:58:47;;;;;;;6.28;1.38;;;;;;;;;;4976597;28;20042;-81
2024/01/28 07:01:13;;;;;;;0.93;0.60;;;;;;;;;;4989961;28;20136;-80
2024/01/28 07:03:39;;;;;;;3.08;0.70;;;;;;;;;;4993480;28;20042;-81
2024/01/28 07:06:05;;;;;;;1.48;1.05;;;;;;;;;;4983050;28;20054;-80
2024/01/28 07:08:31;;;;;;;2.28;0.90;;;;;;;;;;5005563;28;20034;-81
2024/01/28 07:10:58;;;;;;;0.65;0.55;;;;;;;;;;5011157;28;20030;-81
2024/01/28 07:13:24;;;;;;;2.05;0.77;;;;;;;;;;5005314;28;20113;-81
2024/01/28 07:15:50;;;;;;;1.60;0.57;;;;;;;;;;5012898;28;20791;-80
2024/01/28 07:18:16;;;;;;;2.60;0.82;;;;;;;;;;5011495;28;20034;-79
2024/01/28 07:20:42;;;;;;;1.42;0.70;;;;;;;;;;5012318;28;20042;-80
2024/01/28 07:23:08;;;;;;;2.15;0.82;;;;;;;;;;4999675;28;20026;-81
2024/01/28 07:25:34;;;;;;;1.85;0.82;;;;;;;;;;5008114;28;20034;-81
2024/01/28 07:28:00;;;;;;;2.67;0.95;;;;;;;;;;4999813;28;20033;-81
2024/01/28 07:30:26;;;;;;;1.10;0.77;;;;;;;;;;5020912;28;20026;-82
2024/01/28 07:32:52;;;;;;;3.15;1.33;;;;;;;;;;5010816;28;20026;-81
2024/01/28 07:35:18;;;;;;;2.47;1.42;;;;;;;;;;4982603;28;20125;-79
2024/01/28 07:37:44;;;;;;;4.68;1.75;;;;;;;;;;5011046;28;20045;-80
2024/01/28 07:40:10;;;;;;;1.88;1.35;;;;;;;;;;5000600;28;20027;-80
2024/01/28 07:42:37;;;;;;;3.85;1.58;;;;;;;;;;5000202;28;20105;-80
2024/01/28 07:45:03;;;;;;;1.90;1.20;;;;;;;;;;5001712;28;20034;-81
2024/01/28 07:47:29;;;;;;;1.63;0.93;;;;;;;;;;4992376;28;20351;-79
2024/01/28 07:49:55;;;;;;;2.28;0.60;;;;;;;;;;5004972;28;20031;-80
2024/01/28 07:52:21;;;;;;;3.80;0.98;;;;;;;;;;4993174;28;20373;-81
2024/01/28 07:54:47;;;;;;;2.15;0.82;;;;;;;;;;5011409;28;20030;-81
2024/01/28 07:57:13;;;;;;;10.48;2.10;;;;;;;;;;5011668;28;20476;-80
2024/01/28 07:59:39;;;;;;;1.73;1.08;;;;;;;;;;5002522;28;20046;-81
2024/01/28 08:02:05;;;;;;;2.92;1.02;;;;;;;;;;5012386;28;20048;-81
2024/01/28 08:04:31;;;;;;;4.85;1.45;;;;;;;;;;5011580;28;20034;-81
2024/01/28 08:06:57;;;;;;;1.40;0.98;;;;;;;;;;5008250;28;20077;-81
2024/01/28 08:09:23;;;;;;;2.67;1.13;;;;;;;;;;5000529;28;20030;-81
2024/01/28 08:11:49;;;;;;;5.03;1.98;;;;;;;;;;5011549;28;20885;-81
2024/01/28 08:14:15;;;;;;;2.47;1.75;;;;;;;;;;5010203;28;20033;-81
2024/01/28 08:16:41;;;;;;;3.00;1.17;;;;;;;;;;5007507;28;20039;-80
2024/01/28 08:19:08;;;;;;;2.55;0.63;;;;;;;;;;5009699;28;20048;-81
2024/01/28 08:21:34;;;;;;;3.78;1.23;;;;;;;;;;4997367;28;20519;-81
2024/01/28 08:24:00;;;;;;;4.63;1.90;;;;;;;;;;5006487;28;20102;-82
2024/01/28 08:26:26;;;;;;;2.58;1.40;;;;;;;;;;4978722;28;20044;-82
2024/01/28 08:28:54;;;;;;;3.85;1.85;;;;;;;;;;5009036;28;20105;-82
2024/01/28 08:31:20;;;;;;;4.40;2.33;;;;;;;;;;4996137;28;20032;-81
2024/01/28 08:33:46;;;;;;;2.67;1.05;;;;;;;;;;4999733;28;20410;-80
2024/01/28 08:36:12;;;;;;;2.95;1.35;;;;;;;;;;4993506;28;20030;-82
2024/01/28 08:38:38;;;;;;;1.92;0.57;;;;;;;;;;5008637;28;20460;-81
2024/01/28 08:41:04;;;;;;;2.20;1.02;;;;;;;;;;4985321;28;20045;-81
2024/01/28 08:43:31;;;;;;;2.30;1.05;;;;;;;;;;4993413;28;20022;-81
2024/01/28 08:45:57;;;;;;;2.85;1.70;;;;;;;;;;4998365;28;20026;-81
2024/01/28 08:48:23;;;;;;;5.05;1.45;;;;;;;;;;5009430;28;20034;-81
2024/01/28 08:50:49;;;;;;;3.13;1.40;;;;;;;;;;5004679;28;20029;-81
2024/01/28 08:53:15;;;;;;;3.70;1.88;;;;;;;;;;5000036;28;20018;-81
2024/01/28 08:55:41;;;;;;;5.15;1.38;;;;;;;;;;5004682;28;20044;-81
2024/01/28 08:58:07;;;;;;;3.97;1.92;;;;;;;;;;5009287;28;20029;-82
2024/01/28 09:00:33;;;;;;;4.18;2.65;;;;;;;;;;4999576;28;20117;-81
2024/01/28 09:02:59;;;;;;;3.65;1.88;;;;;;;;;;5001403;28;20133;-81
2024/01/28 09:05:25;;;;;;;5.00;1.80;;;;;;;;;;4989956;28;20030;-82
2024/01/28 09:07:52;;;;;;;4.07;2.30;;;;;;;;;;5003505;28;20046;-82
2024/01/28 09:10:19;;;;;;;5.32;2.90;;;;;;;;;;5003599;28;20034;-81
2024/01/28 09:12:45;;;;;;;2.83;1.73;;;;;;;;;;5004508;28;20023;-81
2024/01/28 09:15:11;;;;;;;5.30;2.55;;;;;;;;;;5007627;28;20035;-81
2024/01/28 09:17:37;;;;;;;7.85;3.75;;;;;;;;;;5003238;28;20369;-82
2024/01/28 09:20:03;;;;;;;8.90;4.70;;;;;;;;;;5006316;28;20044;-82
2024/01/28 09:22:29;;;;;;;28.05;5.60;;;;;;;;;;5010369;28;20038;-82
2024/01/28 09:24:55;;;;;;;11.98;6.55;;;;;;;;;;5008298;28;20042;-82
2024/01/28 09:27:23;;;;;;;11.82;5.20;;;;;;;;;;5010224;28;20030;-82
2024/01/28 09:29:50;;;;;;;4.53;3.05;;;;;;;;;;5011449;28;20038;-82
2024/01/28 09:32:17;;;;;;;7.75;3.20;;;;;;;;;;5007424;28;20025;-81
2024/01/28 09:34:45;;;;;;;9.40;3.60;;;;;;;;;;5013252;28;20124;-81
2024/01/28 09:37:11;;;;;;;4.38;1.70;;;;;;;;;;5010871;28;20071;-83
2024/01/28 09:39:39;;;;;;;5.35;2.47;;;;;;;;;;4997621;28;20460;-84
2024/01/28 09:42:08;;;;;;;5.07;1.92;;;;;;;;;;4993537;28;20145;-84
2024/01/28 09:44:34;;;;;;;4.93;2.15;;;;;;;;;;5006239;28;20038;-81
2024/01/28 09:47:00;;;;;;;9.15;2.90;;;;;;;;;;5011160;28;20037;-80
2024/01/28 09:49:27;;;;;;;5.57;1.88;;;;;;;;;;4991471;28;20030;-82
2024/01/28 09:51:53;;;;;;;2.28;1.38;;;;;;;;;;5008925;28;20030;-81
2024/01/28 09:54:19;;;;;;;3.03;1.25;;;;;;;;;;4983820;28;20033;-81
2024/01/28 09:56:46;;;;;;;5.25;2.60;;;;;;;;;;4994465;28;20034;-82
2024/01/28 09:59:16;;;;;;;3.75;1.48;;;;;;;;;;5006183;28;20041;-81
2024/01/28 10:01:42;;;;;;;3.25;1.33;;;;;;;;;;5011147;28;20034;-81
2024/01/28 10:04:11;;;;;;;2.65;1.92;;;;;;;;;;5014936;28;20084;-81
2024/01/28 10:06:37;;;;;;;2.38;0.77;;;;;;;;;;4992269;28;20077;-82
2024/01/28 10:09:03;;;;;;;2.58;1.30;;;;;;;;;;4996595;28;20038;-81
2024/01/28 10:11:29;;;;;;;7.65;1.38;;;;;;;;;;5009122;28;20080;-81
2024/01/28 10:13:56;;;;;;;3.88;1.30;;;;;;;;;;5007890;28;20379;-81
2024/01/28 10:16:23;;;;;;;8.50;0.80;;;;;;;;;;5014297;28;20033;-81
2024/01/28 10:18:49;;;;;;;1.25;0.75;;;;;;;;;;4981083;28;20093;-81
2024/01/28 10:21:15;;;;;;;3.28;1.23;;;;;;;;;;5013828;28;20038;-80
2024/01/28 10:23:43;;;;;;;1.75;0.80;;;;;;;;;;5003493;28;20356;-80
2024/01/28 10:26:09;;;;;;;2.60;1.20;;;;;;;;;;4996336;28;20045;-81
2024/01/28 10:28:38;;;;;;;1.20;1.05;;;;;;;;;;4996800;28;20045;-83
2024/01/28 10:31:05;;;;;;;0.95;0.80;;;;;;;;;;4996442;28;20034;-82
2024/01/28 10:33:31;;;;;;;6.28;3.00;;;;;;;;;;5013253;28;20716;-82
2024/01/28 10:36:03;;;;;;;4.90;2.55;;;;;;;;;;5043937;23;20500;-83
2024/01/28 10:38:35;;;;;;;2.58;1.30;;;;;;;;;;5053620;28;20025;-83
2024/01/28 10:41:44;;;;;;;2.15;1.30;;;;;;;;;;5035368;28;20029;-82
2024/01/28 10:47:17;;;;;;;4.05;1.98;;;;;;;;;;5045164;28;20095;-82
2024/01/28 10:49:56;;;;;;;5.53;2.00;;;;;;;;;;5036354;28;20045;-82
2024/01/28 10:52:23;;;;;;;8.07;1.45;;;;;;;;;;5052977;28;20040;-83
2024/01/28 10:54:50;;;;;;;1.85;0.70;;;;;;;;;;5053873;28;20056;-84
2024/01/28 10:57:16;;;;;;;3.47;0.90;;;;;;;;;;5051421;28;20112;-83
2024/01/28 10:59:42;;;;;;;4.18;1.20;;;;;;;;;;5045668;28;20079;-84
2024/01/28 11:02:09;;;;;;;2.78;1.35;;;;;;;;;;5044877;28;20025;-86
2024/01/28 11:04:36;;;;;;;2.88;1.27;;;;;;;;;;5034761;28;20398;-83
2024/01/28 11:07:02;;;;;;;4.63;0.95;;;;;;;;;;5028730;28;20060;-83
2024/01/28 11:09:29;;;;;;;3.13;0.77;;;;;;;;;;5051257;28;20033;-83
2024/01/28 11:11:55;;;;;;;1.17;0.73;;;;;;;;;;5033301;28;20079;-82
2024/01/28 11:14:21;;;;;;;8.02;3.00;;;;;;;;;;5042677;28;20125;-83
2024/01/28 11:16:51;;;;;;;3.80;1.75;;;;;;;;;;5051039;28;20108;-82
2024/01/28 11:19:17;;;;;;;3.97;1.67;;;;;;;;;;5050283;28;20029;-81
2024/01/28 11:21:51;;;;;;;2.20;1.20;;;;;;;;;;5030782;28;20052;-84
2024/01/28 11:24:17;;;;;;;2.25;1.75;;;;;;;;;;5045605;28;20024;-81
2024/01/28 11:26:45;;;;;;;4.10;2.38;;;;;;;;;;5052318;28;20036;-83
2024/01/28 11:29:11;;;;;;;1.50;0.73;;;;;;;;;;5052003;28;20028;-81
2024/01/28 11:31:40;;;;;;;3.67;2.05;;;;;;;;;;5051698;28;20056;-83
2024/01/28 11:34:10;;;;;;;2.13;1.60;;;;;;;;;;5037559;28;20027;-83
2024/01/28 11:36:38;;;;;;;5.40;1.42;;;;;;;;;;5050664;28;20142;-82
2024/01/28 11:39:05;;;;;;;4.93;2.35;;;;;;;;;;5029754;28;20079;-83
2024/01/28 11:41:37;;;;;;;9.13;2.10;;;;;;;;;;5044659;28;20425;-83
2024/01/28 11:46:39;;;;;;;0.98;0.65;;;;;;;;;;5014179;28;20070;-83
2024/01/28 11:49:30;;;;;;;1.63;0.73;;;;;;;;;;5003911;28;20889;-84
2024/01/28 11:51:55;;;;;;;9.25;1.77;;;;;;;;;;5011030;28;20038;-82
2024/01/28 11:54:23;;;;;;;2.05;0.90;;;;;;;;;;5011542;28;20387;-83
2024/01/28 11:56:49;;;;;;;0.82;0.50;;;;;;;;;;5005840;28;20483;-82
2024/01/28 11:59:15;;;;;;;3.05;1.63;;;;;;;;;;5003214;28;20042;-82
2024/01/28 12:01:41;;;;;;;1.85;0.98;;;;;;;;;;5007887;28;20491;-82
2024/01/28 12:04:11;;;;;;;5.63;1.48;;;;;;;;;;5005136;28;20038;-82
2024/01/28 12:06:37;;;;;;;2.05;1.52;;;;;;;;;;4997303;28;20526;-82
2024/01/28 12:09:04;;;;;;;1.17;0.73;;;;;;;;;;4996656;28;20113;-81
2024/01/28 12:11:30;;;;;;;2.03;0.88;;;;;;;;;;5001504;28;20372;-82
2024/01/28 12:13:56;;;;;;;1.55;0.90;;;;;;;;;;5009883;28;21476;-82
2024/01/28 12:16:23;;;;;;;2.97;1.10;;;;;;;;;;5010627;28;20030;-82
2024/01/28 12:18:53;;;;;;;0.93;0.60;;;;;;;;;;5010466;28;20144;-82
2024/01/28 12:21:19;;;;;;;1.50;0.90;;;;;;;;;;5006773;28;20065;-82
2024/01/28 12:23:46;;;;;;;1.88;1.23;;;;;;;;;;5003876;28;20045;-82
2024/01/28 12:26:12;;;;;;;5.03;1.45;;;;;;;;;;5001943;28;20025;-82
2024/01/28 12:28:39;;;;;;;1.48;0.85;;;;;;;;;;5006954;28;20092;-82
2024/01/28 12:31:05;;;;;;;2.00;0.95;;;;;;;;;;5008316;28;20030;-83
2024/01/28 12:33:31;;;;;;;4.90;0.73;;;;;;;;;;5002016;28;20057;-82
2024/01/28 12:35:57;;;;;;;0.90;0.73;;;;;;;;;;5009740;28;20069;-82
2024/01/28 12:38:23;;;;;;;2.75;1.25;;;;;;;;;;5001399;28;20042;-83
2024/01/28 12:40:49;;;;;;;2.47;1.25;;;;;;;;;;5008732;28;20472;-83
2024/01/28 12:43:15;;;;;;;2.03;1.38;;;;;;;;;;5001999;28;20039;-83
2024/01/28 12:45:42;;;;;;;2.47;1.13;;;;;;;;;;5005399;28;20050;-82
2024/01/28 12:48:08;;;;;;;2.70;1.15;;;;;;;;;;4986062;28;20479;-83
2024/01/28 12:50:34;;;;;;;2.50;1.42;;;;;;;;;;4993640;28;20022;-83
2024/01/28 12:53:00;;;;;;;1.27;0.80;;;;;;;;;;5008413;28;20033;-81
2024/01/28 12:55:26;;;;;;;13.65;1.55;;;;;;;;;;4993930;28;20039;-83
2024/01/28 12:57:52;;;;;;;1.58;0.50;;;;;;;;;;5005739;28;20033;-83
2024/01/28 13:00:18;;;;;;;1.15;0.57;;;;;;;;;;4993525;28;20684;-83
2024/01/28 13:02:44;;;;;;;1.27;0.85;;;;;;;;;;5007250;28;20034;-85
2024/01/28 13:05:16;;;;;;;3.75;1.60;;;;;;;;;;5005306;28;20042;-83
2024/01/28 13:07:42;;;;;;;1.58;0.93;;;;;;;;;;5007472;28;20029;-83
2024/01/28 13:10:14;;;;;;;3.90;1.58;;;;;;;;;;5001142;28;20037;-83
2024/01/28 13:12:48;;;;;;;3.60;1.67;;;;;;;;;;5006777;28;20033;-83
2024/01/28 13:15:14;;;;;;;1.85;0.73;;;;;;;;;;4982802;28;20038;-83
2024/01/28 13:17:43;;;;;;;1.73;0.93;;;;;;;;;;5009513;28;20036;-83
2024/01/28 13:20:11;;;;;;;3.35;1.42;;;;;;;;;;4982069;28;20069;-83
2024/01/28 13:22:38;;;;;;;2.42;0.73;;;;;;;;;;4996634;28;20034;-83
2024/01/28 13:25:04;;;;;;;2.78;1.67;;;;;;;;;;5002056;28;20574;-83
2024/01/28 13:27:33;;;;;;;2.15;0.90;;;;;;;;;;5013936;28;20033;-83
2024/01/28 13:29:59;;;;;;;1.60;0.85;;;;;;;;;;5012122;28;20034;-83
2024/01/28 13:32:27;;;;;;;1.40;0.73;;;;;;;;;;5010505;28;20489;-83
2024/01/28 13:34:56;;;;;;;2.13;0.85;;;;;;;;;;5021714;28;20049;-83
2024/01/28 13:37:22;;;;;;;1.52;1.30;;;;;;;;;;5007095;28;20037;-82
2024/01/28 13:39:51;;;;;;;2.22;1.00;;;;;;;;;;5005550;28;20506;-83
2024/01/28 13:42:30;;;;;;;5.63;1.00;;;;;;;;;;5009259;28;20081;-85
2024/01/28 13:44:56;;;;;;;1.95;0.60;;;;;;;;;;5016329;28;20042;-84
2024/01/28 13:47:24;;;;;;;2.03;1.10;;;;;;;;;;5009891;28;20049;-84
2024/01/28 13:49:50;;;;;;;2.05;0.82;;;;;;;;;;5025422;28;20044;-84
2024/01/28 13:52:16;;;;;;;3.88;1.73;;;;;;;;;;5010913;28;20025;-84
2024/01/28 13:54:42;;;;;;;2.45;0.80;;;;;;;;;;5003675;28;20038;-84
2024/01/28 13:57:10;;;;;;;0.95;0.70;;;;;;;;;;5006928;28;20132;-84
2024/01/28 13:59:36;;;;;;;1.70;0.90;;;;;;;;;;5028165;28;20421;-84
2024/01/28 14:02:04;;;;;;;2.25;0.60;;;;;;;;;;5012857;28;20026;-84
2024/01/28 14:04:30;;;;;;;2.00;1.30;;;;;;;;;;5014251;28;20028;-84
2024/01/28 14:07:03;;;;;;;1.48;0.88;;;;;;;;;;5015990;28;20079;-84
2024/01/28 14:09:29;;;;;;;1.67;0.70;;;;;;;;;;5027012;28;20092;-84
2024/01/28 14:11:55;;;;;;;1.50;0.73;;;;;;;;;;5015154;28;20037;-84
2024/01/28 14:14:21;;;;;;;2.63;1.55;;;;;;;;;;5012883;28;20479;-83
2024/01/28 14:16:47;;;;;;;3.33;1.15;;;;;;;;;;5009299;28;20388;-83
2024/01/28 14:19:13;;;;;;;0.98;0.68;;;;;;;;;;4997645;28;20182;-83
2024/01/28 14:21:39;;;;;;;1.17;0.77;;;;;;;;;;5029995;28;20383;-83
2024/01/28 14:24:08;;;;;;;2.55;0.90;;;;;;;;;;5026922;28;20108;-83
2024/01/28 14:26:34;;;;;;;3.63;1.50;;;;;;;;;;5018245;28;20064;-83
2024/01/28 14:29:00;;;;;;;2.60;1.27;;;;;;;;;;5022549;28;20037;-82
2024/01/28 14:31:26;;;;;;;1.83;1.13;;;;;;;;;;5013385;28;20041;-82
2024/01/28 14:34:13;;;;;;;2.13;0.90;;;;;;;;;;5010060;28;20037;-84
2024/01/28 14:36:41;;;;;;;3.53;1.20;;;;;;;;;;5011223;28;20080;-85
2024/01/28 14:39:07;;;;;;;4.07;1.48;;;;;;;;;;5029281;28;20048;-84
2024/01/28 14:41:36;;;;;;;4.13;1.23;;;;;;;;;;5011735;28;20038;-84
2024/01/28 14:47:44;;;;;;;3.70;0.85;;;;;;;;;;5026784;28;20439;-87
2024/01/28 14:55:51;;;;;;;1.58;1.00;;;;;;;;;;5002336;28;20149;-84